Time;durP1;ratioP1;P1;durP2;ratioP2;P2;SDS_P1;SDS_P2;PMS_P1;PMS_P2;Temp;Humidity;BMP_temperature;BMP_pressure;BME280_temperature;BME280_humidity;BME280_pressure;Samples;Min_cycle;Max_cycle;Signal;HPM_P1;HPM_P2
2023/01/22 00:00:33;;;;;;;217.50;39.77;;;;;;;0.47;100.00;100778.59;5009669;23;20206;-64
2023/01/22 00:03:00;;;;;;;221.43;40.10;;;;;;;0.44;100.00;100776.09;4993557;23;21765;-64
2023/01/22 00:05:26;;;;;;;214.00;42.53;;;;;;;0.47;100.00;100777.72;4993390;23;20323;-66
2023/01/22 00:07:53;;;;;;;208.67;40.90;;;;;;;0.58;100.00;100767.59;4997173;23;21270;-63
2023/01/22 00:10:20;;;;;;;204.07;40.43;;;;;;;0.46;100.00;100776.03;4997106;23;20205;-65
2023/01/22 00:12:46;;;;;;;214.50;43.13;;;;;;;0.40;100.00;100775.41;5006841;23;20210;-63
2023/01/22 00:15:13;;;;;;;197.83;41.27;;;;;;;0.50;100.00;100777.59;5001702;23;21288;-65
2023/01/22 00:17:40;;;;;;;207.37;40.63;;;;;;;0.42;100.00;100791.03;4989955;23;21616;-65
2023/01/22 00:20:07;;;;;;;229.60;41.83;;;;;;;0.44;100.00;100783.09;4998105;23;20220;-66
2023/01/22 00:22:33;;;;;;;206.37;40.53;;;;;;;0.29;100.00;100785.53;5003028;23;20216;-66
2023/01/22 00:25:00;;;;;;;226.87;41.60;;;;;;;0.17;100.00;100789.56;4986876;23;22445;-66
2023/01/22 00:27:27;;;;;;;223.90;39.67;;;;;;;0.55;100.00;100783.47;5006883;23;20205;-64
2023/01/22 00:29:53;;;;;;;196.03;38.67;;;;;;;0.45;100.00;100790.06;5048643;23;20276;-63
2023/01/22 00:32:20;;;;;;;200.07;40.50;;;;;;;0.44;100.00;100793.56;5010937;23;20550;-66
2023/01/22 00:34:51;;;;;;;207.23;39.00;;;;;;;0.56;100.00;100795.63;4985534;23;21670;-67
2023/01/22 00:37:19;;;;;;;192.07;39.50;;;;;;;0.53;100.00;100785.28;5006133;23;20214;-63
2023/01/22 00:39:46;;;;;;;194.37;38.63;;;;;;;0.49;100.00;100802.06;4997222;23;20221;-65
2023/01/22 00:42:12;;;;;;;180.57;37.20;;;;;;;0.45;100.00;100798.75;5000698;23;20284;-64
2023/01/22 00:44:40;;;;;;;190.93;38.90;;;;;;;0.48;100.00;100803.00;5021023;23;21177;-65
2023/01/22 00:47:06;;;;;;;183.63;39.10;;;;;;;0.49;100.00;100802.06;5005146;23;21737;-65
2023/01/22 00:49:33;;;;;;;160.40;37.40;;;;;;;0.50;100.00;100799.38;4964671;23;20263;-64
2023/01/22 00:51:59;;;;;;;188.47;37.63;;;;;;;0.51;100.00;100808.09;5017344;23;20534;-63
2023/01/22 00:54:26;;;;;;;156.50;35.93;;;;;;;0.52;100.00;100807.19;5009719;23;20210;-62
2023/01/22 00:56:53;;;;;;;170.20;34.57;;;;;;;0.63;100.00;100810.13;5025892;23;20521;-63
2023/01/22 00:59:20;;;;;;;159.10;35.00;;;;;;;0.36;100.00;100809.66;4979473;23;21800;-65
2023/01/22 01:01:46;;;;;;;177.00;35.70;;;;;;;0.35;100.00;100824.50;4956220;23;20231;-66
2023/01/22 01:04:13;;;;;;;184.27;35.47;;;;;;;0.31;100.00;100820.34;5008451;23;20261;-64
2023/01/22 01:06:40;;;;;;;163.17;34.27;;;;;;;0.31;100.00;100820.34;4971862;23;20207;-64
2023/01/22 01:09:07;;;;;;;158.27;36.43;;;;;;;0.31;100.00;100824.72;4997361;23;20351;-65
2023/01/22 01:11:33;;;;;;;164.53;34.53;;;;;;;0.27;100.00;100816.16;5018914;23;20209;-64
2023/01/22 01:14:01;;;;;;;165.43;35.57;;;;;;;0.36;100.00;100822.75;4995688;23;20735;-66
2023/01/22 01:16:29;;;;;;;154.53;33.77;;;;;;;0.33;100.00;100825.50;5016294;23;20206;-64
2023/01/22 01:19:16;;;;;;;157.70;33.57;;;;;;;0.20;100.00;100825.19;4991912;23;22014;-65
2023/01/22 01:21:43;;;;;;;143.97;32.43;;;;;;;0.22;100.00;100822.53;5000285;23;21629;-64
2023/01/22 01:24:10;;;;;;;153.13;32.13;;;;;;;0.54;100.00;100827.13;4991554;23;23576;-66
2023/01/22 01:26:38;;;;;;;157.23;34.53;;;;;;;0.53;100.00;100837.66;4997409;23;22939;-66
2023/01/22 01:29:08;;;;;;;138.43;33.43;;;;;;;0.59;100.00;100838.22;4979593;23;25390;-63
2023/01/22 01:31:35;;;;;;;145.00;31.27;;;;;;;0.60;100.00;100839.06;4983118;23;20213;-63
2023/01/22 01:34:03;;;;;;;135.63;31.83;;;;;;;0.44;100.00;100843.31;4971433;23;20206;-65
2023/01/22 01:36:29;;;;;;;138.53;32.30;;;;;;;0.35;100.00;100834.97;5011674;23;20281;-64
2023/01/22 01:39:14;;;;;;;160.07;32.60;;;;;;;0.44;100.00;100835.47;4995804;23;20284;-63
2023/01/22 01:41:40;;;;;;;126.47;29.57;;;;;;;0.36;100.00;100839.28;4986752;23;25006;-64
2023/01/22 01:44:12;;;;;;;134.83;31.57;;;;;;;0.26;100.00;100839.75;5006519;23;21129;-65
2023/01/22 01:46:48;;;;;;;131.47;31.23;;;;;;;0.35;100.00;100840.22;4995051;23;20217;-64
2023/01/22 01:49:22;;;;;;;130.70;32.00;;;;;;;0.31;100.00;100843.03;4954383;23;20218;-64
2023/01/22 01:51:49;;;;;;;137.17;31.23;;;;;;;0.34;100.00;100846.34;5014602;23;20205;-66
2023/01/22 01:54:16;;;;;;;138.87;32.00;;;;;;;0.53;100.00;100850.75;4986735;23;22853;-67
2023/01/22 01:56:46;;;;;;;124.53;30.17;;;;;;;0.51;100.00;100847.34;5015242;23;20667;-65
2023/01/22 01:59:14;;;;;;;145.27;32.10;;;;;;;0.40;100.00;100847.88;4965160;23;20834;-66
2023/01/22 02:01:41;;;;;;;149.70;32.73;;;;;;;0.51;100.00;100861.28;4978169;23;20267;-64
2023/01/22 02:04:07;;;;;;;130.57;31.93;;;;;;;0.43;100.00;100854.72;4976223;23;20205;-65
2023/01/22 02:06:34;;;;;;;136.60;33.33;;;;;;;0.36;100.00;100862.00;4973557;23;22160;-65
2023/01/22 02:09:01;;;;;;;151.57;33.27;;;;;;;0.50;100.00;100864.00;4997238;23;20818;-66
2023/01/22 02:11:28;;;;;;;134.73;32.50;;;;;;;0.44;100.00;100861.66;4994005;23;20248;-67
2023/01/22 02:14:05;;;;;;;135.67;33.13;;;;;;;0.56;100.00;100864.56;4981057;23;20211;-66
2023/01/22 02:16:31;;;;;;;143.30;33.60;;;;;;;0.37;100.00;100861.91;4973632;23;20947;-65
2023/01/22 02:18:58;;;;;;;135.93;32.47;;;;;;;0.30;100.00;100857.88;4995097;23;22663;-66
2023/01/22 02:21:40;;;;;;;134.60;33.13;;;;;;;0.31;100.00;100864.81;4985363;23;21169;-66
2023/01/22 02:24:16;;;;;;;112.60;31.93;;;;;;;0.18;100.00;100866.28;4993866;23;20217;-67
2023/01/22 02:26:44;;;;;;;124.37;31.17;;;;;;;0.26;100.00;100860.69;5008843;23;20375;-66
2023/01/22 02:29:12;;;;;;;142.67;34.13;;;;;;;0.24;100.00;100860.78;4985759;23;20206;-65
2023/01/22 02:31:40;;;;;;;118.13;32.10;;;;;;;0.28;100.00;100856.25;4976789;23;23701;-66
2023/01/22 02:34:08;;;;;;;126.90;31.80;;;;;;;0.28;100.00;100867.59;4992221;23;20451;-64
2023/01/22 02:36:36;;;;;;;134.33;33.07;;;;;;;0.34;100.00;100864.69;4985638;23;20266;-64
2023/01/22 02:39:03;;;;;;;132.50;34.17;;;;;;;0.32;100.00;100865.66;4976959;23;20669;-64
2023/01/22 02:41:30;;;;;;;120.03;30.83;;;;;;;0.40;100.00;100864.41;4987540;23;20229;-67
2023/01/22 02:43:56;;;;;;;135.23;32.70;;;;;;;0.48;100.00;100868.44;5006847;23;26393;-67
2023/01/22 02:46:24;;;;;;;136.47;31.70;;;;;;;0.40;100.00;100860.94;4998485;23;20210;-64
2023/01/22 02:48:51;;;;;;;136.23;32.23;;;;;;;0.36;100.00;100868.09;5016069;23;23836;-64
2023/01/22 02:51:18;;;;;;;126.23;31.57;;;;;;;0.35;100.00;100866.41;4995321;23;20298;-69
2023/01/22 02:53:45;;;;;;;126.93;31.53;;;;;;;0.34;100.00;100875.16;4996578;23;20206;-67
2023/01/22 02:56:11;;;;;;;122.10;31.17;;;;;;;0.42;100.00;100872.19;4994774;23;20210;-68
2023/01/22 02:58:38;;;;;;;119.37;29.30;;;;;;;0.34;100.00;100874.31;4969041;23;20336;-68
2023/01/22 03:01:19;;;;;;;123.33;31.80;;;;;;;0.35;100.00;100876.88;4988881;23;20927;-66
2023/01/22 03:03:51;;;;;;;122.40;30.47;;;;;;;0.31;100.00;100874.47;4996923;23;20210;-65
2023/01/22 03:06:20;;;;;;;120.97;30.03;;;;;;;0.25;100.00;100872.94;5008984;23;20206;-67
2023/01/22 03:08:48;;;;;;;118.00;30.20;;;;;;;0.47;100.00;100874.59;4978076;23;20206;-66
2023/01/22 03:11:15;;;;;;;120.00;31.50;;;;;;;0.29;100.00;100887.59;4987130;23;21364;-66
2023/01/22 03:21:58;;;;;;;124.73;31.63;;;;;;;0.39;100.00;100899.34;4997590;23;20332;-68
2023/01/22 03:24:24;;;;;;;129.83;32.13;;;;;;;0.33;100.00;100904.03;4998298;23;20652;-68
2023/01/22 03:26:51;;;;;;;123.57;31.63;;;;;;;0.34;100.00;100903.09;4990827;23;20206;-64
2023/01/22 03:29:17;;;;;;;125.97;32.40;;;;;;;0.29;100.00;100905.91;4992529;23;20221;-66
2023/01/22 03:31:47;;;;;;;110.80;30.03;;;;;;;0.31;100.00;100909.31;4993842;23;20364;-65
2023/01/22 03:34:15;;;;;;;116.73;30.73;;;;;;;0.28;100.00;100916.44;4956303;23;20279;-67
2023/01/22 03:36:41;;;;;;;114.17;30.30;;;;;;;0.33;100.00;100915.34;4992702;23;21221;-66
2023/01/22 03:39:08;;;;;;;115.00;31.97;;;;;;;0.29;100.00;100920.78;4990270;23;23833;-67
2023/01/22 03:41:35;;;;;;;126.20;31.13;;;;;;;0.59;100.00;100922.03;5004365;23;20297;-68
2023/01/22 03:44:02;;;;;;;112.40;30.33;;;;;;;0.46;100.00;100914.78;5000303;23;20585;-68
2023/01/22 03:46:29;;;;;;;120.23;30.93;;;;;;;0.36;100.00;100920.44;5000381;23;21749;-69
2023/01/22 03:48:55;;;;;;;114.97;31.17;;;;;;;0.26;100.00;100913.91;4989498;23;20337;-65
2023/01/22 03:51:22;;;;;;;132.37;33.20;;;;;;;0.30;100.00;100915.47;4995167;23;21198;-70
2023/01/22 03:53:49;;;;;;;124.57;32.50;;;;;;;0.30;100.00;100915.47;4997532;23;20220;-70
2023/01/22 03:56:18;;;;;;;129.03;32.53;;;;;;;0.36;100.00;100924.84;4999910;23;20248;-66
2023/01/22 03:58:45;;;;;;;116.13;32.37;;;;;;;0.33;100.00;100920.59;5009569;23;21239;-66
2023/01/22 04:01:20;;;;;;;118.73;32.33;;;;;;;0.32;100.00;100926.72;4994994;23;20209;-65
2023/01/22 04:03:47;;;;;;;115.27;32.33;;;;;;;0.31;100.00;100932.03;5016094;23;20208;-66
2023/01/22 04:06:14;;;;;;;115.63;32.47;;;;;;;0.34;100.00;100932.75;4989729;23;20285;-70
2023/01/22 04:08:43;;;;;;;119.43;32.40;;;;;;;0.26;100.00;100940.09;5009619;23;20275;-67
2023/01/22 04:11:10;;;;;;;115.47;32.10;;;;;;;0.27;100.00;100940.94;5001639;23;20206;-66
2023/01/22 04:13:38;;;;;;;103.07;30.97;;;;;;;0.13;100.00;100946.75;4972458;23;20880;-65
2023/01/22 04:16:05;;;;;;;117.43;32.27;;;;;;;0.15;100.00;100942.31;4986246;23;21006;-66
2023/01/22 04:18:32;;;;;;;124.20;31.50;;;;;;;0.17;100.00;100941.34;4955841;23;20308;-68
2023/01/22 04:20:58;;;;;;;115.87;30.37;;;;;;;0.11;100.00;100935.50;5002975;23;20224;-66
2023/01/22 04:23:25;;;;;;;109.23;29.47;;;;;;;0.19;100.00;100943.91;4941333;23;20279;-66
2023/01/22 04:25:52;;;;;;;107.90;28.53;;;;;;;0.23;100.00;100942.81;5008481;23;22240;-64
2023/01/22 04:28:19;;;;;;;104.87;26.70;;;;;;;0.31;100.00;100938.13;4962590;23;20930;-67
2023/01/22 04:30:47;;;;;;;94.13;28.17;;;;;;;0.16;100.00;100944.00;4987903;23;20258;-65
2023/01/22 04:33:14;;;;;;;94.90;27.83;;;;;;;0.23;100.00;100945.44;4970889;23;20205;-69
2023/01/22 04:35:41;;;;;;;105.80;27.37;;;;;;;0.32;100.00;100946.81;4957544;23;20273;-65
2023/01/22 04:38:11;;;;;;;98.83;27.57;;;;;;;0.29;100.00;100947.81;4946873;23;20234;-68
2023/01/22 04:40:38;;;;;;;101.43;27.47;;;;;;;0.32;100.00;100950.28;4966197;23;20308;-63
2023/01/22 04:43:06;;;;;;;93.40;27.20;;;;;;;0.19;100.00;100944.75;4989693;23;21152;-65
2023/01/22 04:45:33;;;;;;;94.87;27.00;;;;;;;0.22;100.00;100948.16;4972931;23;22006;-65
2023/01/22 04:48:00;;;;;;;105.23;27.17;;;;;;;0.52;100.00;100956.44;4969223;23;20445;-69
2023/01/22 04:50:29;;;;;;;92.50;26.47;;;;;;;0.53;100.00;100965.97;4949754;23;20373;-65
2023/01/22 04:52:56;;;;;;;93.50;27.47;;;;;;;0.49;100.00;100967.88;4978090;23;22246;-67
2023/01/22 04:55:24;;;;;;;89.53;26.73;;;;;;;0.57;100.00;100965.75;4956315;23;20758;-66
2023/01/22 04:57:55;;;;;;;86.90;27.47;;;;;;;0.50;100.00;100968.72;4975125;23;20206;-67
2023/01/22 05:00:22;;;;;;;91.60;26.00;;;;;;;0.52;100.00;100972.13;4963647;23;20215;-64
2023/01/22 05:02:48;;;;;;;88.63;25.40;;;;;;;0.54;100.00;100980.75;4958504;23;20360;-66
2023/01/22 05:05:15;;;;;;;90.17;26.00;;;;;;;0.33;100.00;100977.31;4970895;23;20206;-68
2023/01/22 05:07:42;;;;;;;104.37;27.17;;;;;;;0.30;100.00;100973.03;4965506;23;20219;-68
2023/01/22 05:10:09;;;;;;;88.37;26.20;;;;;;;0.30;100.00;100982.66;4974805;23;20215;-68
2023/01/22 05:12:35;;;;;;;96.70;25.73;;;;;;;0.40;100.00;100984.00;4956943;23;21593;-65
2023/01/22 05:15:02;;;;;;;89.43;26.73;;;;;;;0.36;100.00;100974.56;4964532;23;20215;-65
2023/01/22 05:17:37;;;;;;;82.90;26.17;;;;;;;0.24;100.00;100981.19;4954487;23;20207;-66
2023/01/22 05:20:04;;;;;;;85.47;26.47;;;;;;;0.19;100.00;100980.53;4951726;23;20365;-68
2023/01/22 05:22:31;;;;;;;86.43;26.10;;;;;;;0.21;100.00;100981.28;4973568;23;20219;-67
2023/01/22 05:24:57;;;;;;;90.70;26.70;;;;;;;0.26;100.00;100981.09;4979246;23;22833;-66
2023/01/22 05:27:24;;;;;;;83.27;25.77;;;;;;;0.25;100.00;100980.25;4948245;23;20211;-64
2023/01/22 05:29:51;;;;;;;87.23;27.60;;;;;;;0.23;100.00;100989.94;4977533;23;20203;-66
2023/01/22 05:32:17;;;;;;;85.83;26.10;;;;;;;0.24;100.00;100989.03;4966599;23;20273;-63
2023/01/22 05:34:44;;;;;;;78.03;25.50;;;;;;;0.24;100.00;100983.81;4949298;23;20215;-66
2023/01/22 05:37:10;;;;;;;84.17;26.20;;;;;;;0.32;100.00;100993.94;4969921;23;22273;-66
2023/01/22 05:39:37;;;;;;;83.07;25.43;;;;;;;0.29;100.00;100989.69;4965195;23;20432;-67
2023/01/22 05:42:04;;;;;;;79.50;25.70;;;;;;;0.14;100.00;100992.94;4992025;23;20203;-65
2023/01/22 05:44:30;;;;;;;80.60;26.20;;;;;;;0.29;100.00;100997.53;4983543;23;20308;-67
2023/01/22 05:46:59;;;;;;;76.83;25.13;;;;;;;0.39;100.00;100997.97;4957228;23;21140;-67
2023/01/22 05:49:25;;;;;;;83.57;25.73;;;;;;;0.34;100.00;101002.56;4968087;23;20267;-66
2023/01/22 05:51:52;;;;;;;86.73;25.93;;;;;;;0.48;100.00;101000.22;4964648;23;20382;-68
2023/01/22 05:54:19;;;;;;;85.93;25.27;;;;;;;0.51;100.00;101001.84;4951393;23;20213;-67
2023/01/22 05:56:45;;;;;;;77.77;25.07;;;;;;;0.35;100.00;101013.00;4953137;23;20266;-65
2023/01/22 05:59:12;;;;;;;69.47;23.37;;;;;;;0.38;100.00;101012.00;4945636;23;20690;-69
2023/01/22 06:01:38;;;;;;;77.60;24.17;;;;;;;0.39;100.00;101014.53;4954742;23;20269;-64
2023/01/22 06:04:05;;;;;;;76.60;25.00;;;;;;;0.48;100.00;101018.53;4959649;23;20211;-68
2023/01/22 06:06:32;;;;;;;68.00;23.30;;;;;;;0.38;100.00;101023.31;4975581;23;20269;-65
2023/01/22 06:08:59;;;;;;;71.80;24.53;;;;;;;0.35;100.00;101028.69;4954325;23;20211;-69
2023/01/22 06:11:26;;;;;;;72.80;23.37;;;;;;;0.29;100.00;101028.94;4967337;23;24818;-70
2023/01/22 06:13:53;;;;;;;71.90;24.40;;;;;;;0.41;100.00;101022.34;4991088;23;21597;-66
2023/01/22 06:16:19;;;;;;;69.10;23.80;;;;;;;0.42;100.00;101021.41;4996229;23;20294;-69
2023/01/22 06:18:46;;;;;;;68.20;23.60;;;;;;;0.55;100.00;101034.84;5006525;23;21263;-68
2023/01/22 06:21:12;;;;;;;64.87;23.13;;;;;;;0.50;100.00;101036.81;4981794;23;21715;-69
2023/01/22 06:23:40;;;;;;;69.40;22.23;;;;;;;0.51;100.00;101031.47;5009794;23;20266;-69
2023/01/22 06:26:06;;;;;;;68.03;23.83;;;;;;;0.55;100.00;101029.59;5014249;23;20225;-67
2023/01/22 06:28:33;;;;;;;64.77;23.53;;;;;;;0.37;100.00;101037.31;4994344;23;26223;-66
2023/01/22 06:31:04;;;;;;;68.43;22.77;;;;;;;0.41;100.00;101038.03;5015359;23;20205;-67
2023/01/22 06:33:34;;;;;;;55.30;21.83;;;;;;;0.37;100.00;101046.94;5007218;23;20217;-67
2023/01/22 06:36:04;;;;;;;58.50;21.93;;;;;;;0.33;100.00;101046.22;5002021;23;20224;-66
2023/01/22 06:38:31;;;;;;;64.63;21.77;;;;;;;0.53;100.00;101047.16;4969529;23;20290;-69
2023/01/22 06:40:59;;;;;;;66.17;23.80;;;;;;;0.51;100.00;101047.19;4993084;23;22072;-65
2023/01/22 06:43:26;;;;;;;62.37;22.73;;;;;;;0.56;100.00;101047.00;4988892;23;21275;-64
2023/01/22 06:45:54;;;;;;;60.20;21.03;;;;;;;0.52;100.00;101050.69;5013862;23;20345;-63
2023/01/22 06:48:20;;;;;;;59.07;21.47;;;;;;;0.52;100.00;101050.69;5008298;23;20281;-67
2023/01/22 06:50:47;;;;;;;56.77;21.67;;;;;;;0.52;100.00;101055.94;5002996;23;20479;-66
2023/01/22 06:53:14;;;;;;;51.33;21.20;;;;;;;0.52;100.00;101059.38;4993067;23;20340;-72
2023/01/22 06:55:40;;;;;;;60.30;20.57;;;;;;;0.54;100.00;101059.31;4997149;23;21721;-70
2023/01/22 06:58:07;;;;;;;49.93;19.93;;;;;;;0.50;100.00;101061.22;4984413;23;20299;-67
2023/01/22 07:00:34;;;;;;;49.93;20.03;;;;;;;0.65;100.00;101077.19;4993957;23;20299;-69
2023/01/22 07:03:05;;;;;;;48.73;19.27;;;;;;;0.58;100.00;101077.44;4986180;23;21961;-66
2023/01/22 07:05:32;;;;;;;48.83;20.17;;;;;;;0.51;100.00;101083.84;5015367;23;20570;-68
2023/01/22 07:08:00;;;;;;;48.33;19.00;;;;;;;0.48;100.00;101080.53;4987093;23;20590;-69
2023/01/22 07:10:27;;;;;;;47.63;19.00;;;;;;;0.38;100.00;101086.16;5001968;23;20257;-66
2023/01/22 07:12:54;;;;;;;46.83;19.50;;;;;;;0.52;100.00;101092.59;5016900;23;20205;-73
2023/01/22 07:15:21;;;;;;;49.77;19.93;;;;;;;0.48;100.00;101097.09;4988075;23;20927;-70
2023/01/22 07:17:53;;;;;;;47.63;20.03;;;;;;;0.57;100.00;101096.69;5018219;23;20304;-71
2023/01/22 07:20:22;;;;;;;45.77;18.60;;;;;;;0.70;100.00;101102.25;4995177;23;21766;-73
2023/01/22 07:22:49;;;;;;;45.60;18.87;;;;;;;0.58;100.00;101102.78;5014506;23;20207;-76
2023/01/22 07:25:16;;;;;;;48.43;19.90;;;;;;;0.65;100.00;101106.00;4991035;23;25511;-73
2023/01/22 07:27:46;;;;;;;53.80;19.03;;;;;;;0.54;100.00;101102.06;5005944;23;20209;-72
2023/01/22 07:30:13;;;;;;;46.90;18.00;;;;;;;0.60;100.00;101108.81;5015585;23;21862;-76
2023/01/22 07:32:43;;;;;;;46.43;19.87;;;;;;;0.55;100.00;101106.38;5037665;23;20208;-72
2023/01/22 07:35:10;;;;;;;41.30;17.33;;;;;;;0.55;100.00;101105.53;4997038;23;20387;-75
2023/01/22 07:37:36;;;;;;;45.83;19.70;;;;;;;0.41;100.00;101114.81;5024853;23;22430;-76
2023/01/22 07:40:04;;;;;;;40.60;18.07;;;;;;;0.46;100.00;101119.00;4962218;23;20214;-71
2023/01/22 07:42:31;;;;;;;44.03;17.97;;;;;;;0.46;100.00;101124.25;5004161;23;20433;-74
2023/01/22 07:44:58;;;;;;;40.37;17.10;;;;;;;0.44;100.00;101126.91;4997734;23;21126;-73
2023/01/22 07:47:24;;;;;;;41.57;17.13;;;;;;;0.62;100.00;101125.31;5021003;23;20220;-71
2023/01/22 07:49:51;;;;;;;42.13;17.83;;;;;;;0.53;100.00;101130.94;4981105;23;20230;-71
2023/01/22 07:52:18;;;;;;;42.33;18.33;;;;;;;0.52;100.00;101129.25;4993391;23;23346;-68
2023/01/22 07:54:44;;;;;;;41.53;17.47;;;;;;;0.61;100.00;101134.94;5005604;23;20213;-73
2023/01/22 07:57:14;;;;;;;39.87;17.77;;;;;;;0.45;100.00;101136.50;5020315;23;20224;-73
2023/01/22 07:59:41;;;;;;;41.27;17.87;;;;;;;0.58;100.00;101139.44;4995314;23;21189;-73
2023/01/22 08:02:14;;;;;;;41.03;16.93;;;;;;;0.45;100.00;101131.25;5004264;23;22091;-68
2023/01/22 08:04:41;;;;;;;35.80;17.13;;;;;;;0.59;100.00;101135.94;5009523;23;20256;-78
2023/01/22 08:07:14;;;;;;;42.77;17.67;;;;;;;0.41;100.00;101141.00;4993549;23;20280;-74
2023/01/22 08:09:40;;;;;;;46.23;18.27;;;;;;;0.43;100.00;101145.34;5007020;23;20316;-71
2023/01/22 08:12:07;;;;;;;47.43;18.77;;;;;;;0.58;100.00;101144.69;4947377;23;22539;-69
2023/01/22 08:14:34;;;;;;;40.57;17.97;;;;;;;0.58;100.00;101142.06;4981362;23;20206;-69
2023/01/22 08:17:00;;;;;;;41.87;18.37;;;;;;;0.56;100.00;101147.38;5009200;23;21937;-73
2023/01/22 08:19:30;;;;;;;41.97;17.73;;;;;;;0.57;100.00;101154.31;5012797;23;20354;-72
2023/01/22 08:21:57;;;;;;;42.57;17.57;;;;;;;0.56;100.00;101151.75;4994637;23;20252;-72
2023/01/22 08:24:23;;;;;;;43.57;17.93;;;;;;;0.63;100.00;101147.97;4962980;23;21792;-71
2023/01/22 08:26:50;;;;;;;39.23;18.57;;;;;;;0.62;100.00;101151.50;4994150;23;21702;-70
2023/01/22 08:29:17;;;;;;;36.80;16.93;;;;;;;0.65;100.00;101161.84;4990311;23;20213;-69
2023/01/22 08:31:43;;;;;;;44.33;18.13;;;;;;;0.76;100.00;101154.41;5014896;23;20513;-70
2023/01/22 08:34:11;;;;;;;40.00;17.57;;;;;;;0.77;100.00;101161.34;5015797;23;25004;-70
2023/01/22 08:36:37;;;;;;;38.40;17.50;;;;;;;0.61;100.00;101158.50;5000592;23;20218;-70
2023/01/22 08:39:04;;;;;;;38.80;16.87;;;;;;;0.61;100.00;101161.13;4975797;23;20206;-74
2023/01/22 08:41:30;;;;;;;38.93;17.53;;;;;;;0.57;100.00;101164.78;5019067;23;20356;-72
2023/01/22 08:43:57;;;;;;;41.33;18.03;;;;;;;0.61;100.00;101176.00;5030585;23;21625;-69
2023/01/22 08:46:24;;;;;;;40.53;16.97;;;;;;;0.64;100.00;101188.97;5017632;23;21369;-71
2023/01/22 08:48:50;;;;;;;37.23;17.03;;;;;;;0.71;100.00;101185.19;5009684;23;22701;-72
2023/01/22 08:51:17;;;;;;;38.53;17.37;;;;;;;0.57;100.00;101179.66;5004133;23;20454;-73
2023/01/22 08:53:43;;;;;;;39.43;17.30;;;;;;;0.65;100.00;101187.19;5021720;23;21454;-73
2023/01/22 08:56:10;;;;;;;38.00;16.47;;;;;;;0.68;100.00;101181.81;4999592;23;20799;-69
2023/01/22 08:58:37;;;;;;;40.87;17.50;;;;;;;0.63;100.00;101190.75;4999003;23;20211;-70
2023/01/22 09:01:03;;;;;;;39.90;17.33;;;;;;;0.62;100.00;101182.94;5007956;23;20281;-72
2023/01/22 09:03:30;;;;;;;40.57;17.23;;;;;;;0.70;100.00;101180.00;4991261;23;20315;-71
2023/01/22 09:05:57;;;;;;;39.93;16.27;;;;;;;0.67;100.00;101180.97;4990492;23;21912;-70
2023/01/22 09:08:24;;;;;;;39.27;18.03;;;;;;;0.68;100.00;101193.16;4995937;23;20206;-71
2023/01/22 09:10:51;;;;;;;39.77;17.87;;;;;;;0.80;100.00;101194.44;4985332;23;20206;-72
2023/01/22 09:13:17;;;;;;;40.70;17.87;;;;;;;0.80;100.00;101199.66;5005446;23;20366;-69
2023/01/22 09:15:44;;;;;;;39.53;17.77;;;;;;;1.00;100.00;101193.56;5018748;23;20560;-72
2023/01/22 09:18:11;;;;;;;40.63;16.53;;;;;;;0.71;100.00;101202.66;5012850;23;22902;-70
2023/01/22 09:20:37;;;;;;;41.60;17.50;;;;;;;0.80;100.00;101210.16;4984950;23;21603;-69
2023/01/22 09:23:04;;;;;;;40.80;17.13;;;;;;;0.87;100.00;101213.34;5011601;23;21911;-70
2023/01/22 09:25:30;;;;;;;34.80;16.13;;;;;;;0.82;100.00;101206.56;5018321;23;20424;-69
2023/01/22 09:27:58;;;;;;;32.80;14.77;;;;;;;0.83;100.00;101216.09;5012166;23;20206;-71
2023/01/22 09:30:26;;;;;;;32.60;15.67;;;;;;;0.71;100.00;101213.16;5003130;23;20253;-69
2023/01/22 09:32:53;;;;;;;44.53;17.67;;;;;;;0.92;100.00;101219.28;4993952;23;20372;-69
2023/01/22 09:35:20;;;;;;;38.80;16.17;;;;;;;0.80;100.00;101216.22;4968093;23;20208;-72
2023/01/22 09:37:46;;;;;;;36.03;14.87;;;;;;;0.88;100.00;101218.53;5041495;23;20233;-72
2023/01/22 09:40:42;;;;;;;35.90;15.77;;;;;;;0.91;100.00;101220.16;5016269;23;20214;-70
2023/01/22 09:43:26;;;;;;;37.70;16.43;;;;;;;0.70;100.00;101225.38;4987593;23;20217;-72
2023/01/22 09:45:54;;;;;;;36.17;15.73;;;;;;;0.76;100.00;101225.13;4978137;23;22898;-70
2023/01/22 09:48:21;;;;;;;37.13;15.63;;;;;;;0.84;100.00;101215.19;5030942;23;22714;-70
2023/01/22 09:50:49;;;;;;;34.43;15.73;;;;;;;0.79;100.00;101225.00;5009543;23;20237;-72
2023/01/22 09:53:18;;;;;;;34.27;15.50;;;;;;;0.79;100.00;101216.28;4984349;23;20202;-70
2023/01/22 09:55:46;;;;;;;35.23;15.00;;;;;;;0.87;100.00;101223.81;4982473;23;22297;-71
2023/01/22 09:58:16;;;;;;;38.20;14.93;;;;;;;0.76;100.00;101224.28;4990638;23;20420;-70
2023/01/22 10:00:48;;;;;;;37.80;15.90;;;;;;;0.71;100.00;101218.38;5000857;23;21337;-71
2023/01/22 10:03:21;;;;;;;31.97;15.07;;;;;;;0.77;100.00;101224.22;4989944;23;20215;-72
2023/01/22 10:05:53;;;;;;;32.60;14.63;;;;;;;0.71;100.00;101223.63;5006005;23;20201;-69
2023/01/22 10:08:25;;;;;;;31.20;14.67;;;;;;;0.75;100.00;101222.56;4993564;23;20232;-70
2023/01/22 10:10:52;;;;;;;34.87;15.37;;;;;;;0.77;100.00;101224.22;5014598;23;22136;-68
2023/01/22 10:13:20;;;;;;;34.93;15.13;;;;;;;0.81;100.00;101228.41;5020668;23;20725;-68
2023/01/22 10:15:48;;;;;;;32.57;15.07;;;;;;;0.96;100.00;101231.31;4947026;23;20215;-72
2023/01/22 10:18:36;;;;;;;35.27;14.47;;;;;;;1.16;100.00;101220.00;5013743;23;21157;-74
2023/01/22 10:21:05;;;;;;;32.67;14.50;;;;;;;1.14;100.00;101225.28;5026166;23;20209;-76
2023/01/22 10:23:33;;;;;;;32.93;14.73;;;;;;;0.95;100.00;101227.84;4990148;23;20214;-72
2023/01/22 10:26:32;;;;;;;33.50;14.70;;;;;;;0.87;100.00;101219.47;5002649;23;20503;-74
2023/01/22 10:29:04;;;;;;;34.83;14.57;;;;;;;0.89;100.00;101220.25;5009384;23;20616;-68
2023/01/22 10:31:34;;;;;;;35.07;15.77;;;;;;;1.00;100.00;101219.78;4992257;23;21358;-73
2023/01/22 10:34:08;;;;;;;32.27;13.67;;;;;;;1.01;100.00;101221.50;4982973;23;20290;-70
2023/01/22 10:36:35;;;;;;;32.07;13.80;;;;;;;1.02;100.00;101210.09;4996455;23;21370;-70
2023/01/22 10:39:12;;;;;;;36.20;15.17;;;;;;;0.95;100.00;101206.03;4991299;23;20430;-73
2023/01/22 10:41:40;;;;;;;29.20;14.03;;;;;;;0.97;100.00;101214.69;4996018;23;22476;-74
2023/01/22 10:44:19;;;;;;;36.53;14.23;;;;;;;0.98;100.00;101206.75;5026242;23;20265;-73
2023/01/22 10:46:48;;;;;;;34.73;14.80;;;;;;;0.96;100.00;101212.97;5001534;23;20297;-72
2023/01/22 10:49:26;;;;;;;35.63;14.03;;;;;;;0.97;100.00;101212.06;4991356;23;20208;-71
2023/01/22 10:51:57;;;;;;;29.50;13.70;;;;;;;0.89;100.00;101212.38;5021115;23;20213;-75
2023/01/22 10:54:30;;;;;;;36.37;14.83;;;;;;;1.00;100.00;101206.69;4991353;23;20706;-73
2023/01/22 10:57:21;;;;;;;35.63;15.50;;;;;;;0.92;100.00;101209.63;4989855;23;20215;-71
2023/01/22 10:59:54;;;;;;;33.77;15.23;;;;;;;0.95;100.00;101204.25;5010698;23;22204;-73
2023/01/22 11:02:23;;;;;;;33.03;14.03;;;;;;;1.03;100.00;101198.69;5007035;23;20272;-71
2023/01/22 11:04:51;;;;;;;30.40;13.90;;;;;;;1.05;100.00;101197.72;5011836;23;20205;-76
2023/01/22 11:07:20;;;;;;;34.77;14.37;;;;;;;0.99;100.00;101200.59;5004101;23;20285;-71
2023/01/22 11:10:05;;;;;;;34.17;13.83;;;;;;;0.94;100.00;101199.09;4977047;23;20207;-70
2023/01/22 11:12:38;;;;;;;32.53;14.90;;;;;;;1.05;100.00;101196.84;4971925;23;20636;-70
2023/01/22 11:15:21;;;;;;;37.07;15.27;;;;;;;1.04;100.00;101205.63;5006998;23;20284;-70
2023/01/22 11:17:51;;;;;;;32.27;14.60;;;;;;;0.98;100.00;101206.75;5010251;23;20206;-70
2023/01/22 11:20:25;;;;;;;37.37;15.33;;;;;;;1.01;100.00;101208.41;4997411;23;20217;-74